Time;durP1;ratioP1;P1;durP2;ratioP2;P2;SDS_P1;SDS_P2;PMS_P1;PMS_P2;Temp;Humidity;BMP_temperature;BMP_pressure;BME280_temperature;BME280_humidity;BME280_pressure;Samples;Min_cycle;Max_cycle;Signal;HPM_P1;HPM_P2
2023/04/01 00:01:03;;;;;;;;;0.00;0.00;;;;;12.64;61.49;99748.31;5071807;28;44957;-72
2023/04/01 00:03:29;;;;;;;;;0.67;0.67;;;;;12.78;61.47;99766.22;5071170;28;44925;-71
2023/04/01 00:05:56;;;;;;;;;0.00;0.00;;;;;12.62;61.47;99738.47;5069836;28;47633;-71
2023/04/01 00:08:22;;;;;;;;;1.00;0.00;;;;;12.80;61.22;99776.06;5070989;28;45169;-72
2023/04/01 00:10:47;;;;;;;;;3.33;0.33;;;;;12.78;61.65;99771.56;5066990;28;44992;-70
2023/04/01 00:13:13;;;;;;;;;2.33;0.67;;;;;12.82;61.75;99771.59;5066943;28;45082;-72
2023/04/01 00:15:41;;;;;;;;;0.00;0.00;;;;;12.83;61.96;99777.84;5059945;28;47280;-70
2023/04/01 00:18:07;;;;;;;;;2.00;0.00;;;;;12.86;62.00;99773.38;5081774;28;45268;-73
2023/04/01 00:20:33;;;;;;;;;1.00;1.00;;;;;12.77;62.06;99756.38;5071497;28;45294;-72
2023/04/01 00:22:58;;;;;;;;;0.67;0.00;;;;;12.78;61.87;99782.28;5072152;28;45028;-71
2023/04/01 00:25:24;;;;;;;;;3.00;0.33;;;;;12.79;62.06;99773.38;5071645;28;45089;-71
2023/04/01 00:27:49;;;;;;;;;0.00;0.00;;;;;12.72;61.70;99776.03;5063454;28;45316;-72
2023/04/01 00:30:16;;;;;;;;;0.00;0.00;;;;;12.69;61.89;99776.03;5071770;28;45213;-71
2023/04/01 00:32:41;;;;;;;;;0.00;0.00;;;;;12.71;62.34;99784.97;5065171;28;45241;-72
2023/04/01 00:35:07;;;;;;;;;0.00;0.00;;;;;12.73;62.74;99788.53;5068533;28;45525;-72
2023/04/01 00:37:36;;;;;;;;;0.00;0.00;;;;;12.75;62.23;99799.25;5071704;28;45439;-71
2023/04/01 00:40:03;;;;;;;;;0.00;0.00;;;;;12.75;62.88;99790.31;5066593;28;45000;-71
2023/04/01 00:42:29;;;;;;;;;1.33;0.00;;;;;12.69;62.50;99775.13;5068919;28;45167;-72
2023/04/01 00:44:55;;;;;;;;;3.00;0.00;;;;;12.73;62.46;99791.22;5061323;28;45642;-70
2023/04/01 00:47:22;;;;;;;;;1.33;1.00;;;;;12.71;62.23;99794.78;5069529;28;45305;-72
2023/04/01 00:49:52;;;;;;;;;0.00;0.00;;;;;12.57;63.36;99765.25;5071470;28;45319;-71
2023/04/01 00:52:22;;;;;;;;;0.00;0.00;;;;;12.71;63.09;99781.38;5069724;28;45121;-70
2023/04/01 00:54:52;;;;;;;;;0.67;0.00;;;;;12.70;63.47;99787.63;5063781;28;46558;-71
2023/04/01 00:57:29;;;;;;;;;1.00;1.00;;;;;12.67;63.37;99790.28;5059940;28;45167;-70
2023/04/01 00:59:55;;;;;;;;;2.33;1.00;;;;;12.66;62.67;99769.78;5070785;28;45758;-71
2023/04/01 01:02:22;;;;;;;;;0.00;0.00;;;;;12.66;63.86;99792.09;5060487;28;45062;-72
2023/04/01 01:04:48;;;;;;;;;1.00;0.33;;;;;12.59;64.12;99781.34;5063981;28;45218;-70
2023/04/01 01:07:34;;;;;;;;;2.67;2.00;;;;;12.57;64.95;99788.50;5068573;28;45186;-72
2023/04/01 01:10:08;;;;;;;;;1.67;0.00;;;;;12.61;64.50;99788.50;5063900;28;45365;-71
2023/04/01 01:13:17;;;;;;;;;4.00;1.00;;;;;12.59;64.74;99790.31;5067329;28;45085;-71
2023/04/01 01:15:53;;;;;;;;;0.33;0.33;;;;;12.60;64.64;99792.06;5066667;28;45203;-71
2023/04/01 01:18:33;;;;;;;;;0.00;0.00;;;;;12.50;65.14;99782.22;5066596;28;45394;-70
2023/04/01 01:21:26;;;;;;;;;0.00;0.00;;;;;12.52;65.89;99786.72;5060653;28;45274;-72
2023/04/01 01:24:28;;;;;;;;;1.00;0.00;;;;;12.47;65.45;99779.53;5063348;28;45210;-71
2023/04/01 01:27:01;;;;;;;;;0.00;0.00;;;;;12.52;65.21;99786.72;5063560;28;45546;-71
2023/04/01 01:29:52;;;;;;;;;1.00;1.00;;;;;12.52;65.33;99786.72;5078524;28;45101;-70
2023/04/01 01:32:48;;;;;;;;;1.67;1.67;;;;;12.38;66.00;99771.50;5069320;28;45068;-70
2023/04/01 01:35:25;;;;;;;;;0.00;0.00;;;;;12.52;65.63;99792.06;5058550;28;45159;-72
2023/04/01 01:37:55;;;;;;;;;0.33;0.00;;;;;12.47;64.68;99776.84;5062157;28;45079;-73
2023/04/01 01:40:22;;;;;;;;;0.00;0.00;;;;;12.53;64.93;99787.59;5069029;28;45095;-72
2023/04/01 01:42:52;;;;;;;;;0.00;0.00;;;;;12.46;64.64;99788.47;5063127;28;45269;-71
2023/04/01 01:45:21;;;;;;;;;2.00;1.00;;;;;12.52;65.52;99801.88;5069761;28;45147;-71
2023/04/01 01:47:48;;;;;;;;;1.33;0.00;;;;;12.41;65.49;99784.91;5063059;28;46178;-72
2023/04/01 01:50:16;;;;;;;;;2.00;0.33;;;;;12.34;65.27;99774.16;5057475;28;45158;-71
2023/04/01 01:52:41;;;;;;;;;1.33;0.67;;;;;12.33;66.37;99793.78;5064348;28;45170;-72
2023/04/01 01:55:30;;;;;;;;;1.00;0.00;;;;;12.33;67.54;99801.81;5068680;28;45270;-71
2023/04/01 01:58:08;;;;;;;;;1.00;1.00;;;;;12.27;67.94;99812.50;5064432;28;45797;-71
2023/04/01 02:00:35;;;;;;;;;2.00;1.00;;;;;12.28;68.67;99810.72;5069247;28;45253;-70
2023/04/01 02:03:01;;;;;;;;;0.00;0.00;;;;;12.27;68.66;99822.31;5071438;28;45326;-71
2023/04/01 02:05:30;;;;;;;;;1.33;0.33;;;;;12.15;68.12;99799.94;5074231;28;45233;-71
2023/04/01 02:08:12;;;;;;;;;0.00;0.00;;;;;12.14;68.01;99786.53;5067448;28;46103;-71
2023/04/01 02:10:42;;;;;;;;;2.00;0.00;;;;;12.26;68.10;99812.47;5060776;28;45269;-71
2023/04/01 02:13:18;;;;;;;;;0.00;0.00;;;;;12.14;68.06;99786.53;5069283;28;45186;-71
2023/04/01 02:15:47;;;;;;;;;0.67;0.00;;;;;12.13;68.09;99790.13;5071561;28;45101;-71
2023/04/01 02:18:15;;;;;;;;;0.00;0.00;;;;;12.26;68.54;99821.44;5068299;28;45638;-71
2023/04/01 02:20:42;;;;;;;;;0.33;0.00;;;;;12.22;68.37;99811.59;5067496;28;45206;-71
2023/04/01 02:23:09;;;;;;;;;0.33;0.00;;;;;12.21;68.47;99816.94;5061039;28;45143;-71
2023/04/01 02:25:37;;;;;;;;;3.00;1.00;;;;;12.18;68.45;99807.13;5068320;28;45112;-72
2023/04/01 02:28:06;;;;;;;;;0.00;0.00;;;;;12.21;68.19;99814.25;5062698;28;45289;-69
2023/04/01 02:30:35;;;;;;;;;1.67;0.67;;;;;12.15;67.53;99810.66;5064036;28;45248;-70
2023/04/01 02:33:02;;;;;;;;;0.67;0.67;;;;;12.04;67.95;99788.28;5065325;28;44919;-71
2023/04/01 02:35:28;;;;;;;;;1.33;0.33;;;;;11.96;67.38;99777.56;5074166;28;45237;-71
2023/04/01 02:37:55;;;;;;;;;2.00;2.00;;;;;12.15;67.10;99816.00;5074045;28;45625;-70
2023/04/01 02:40:21;;;;;;;;;2.00;2.00;;;;;12.14;67.64;99813.31;5072454;28;45267;-70
2023/04/01 02:42:47;;;;;;;;;4.00;0.00;;;;;12.13;66.00;99808.88;5089275;28;45065;-72
2023/04/01 02:45:14;;;;;;;;;0.00;0.00;;;;;12.22;65.95;99818.72;5066115;28;46134;-71
2023/04/01 02:47:39;;;;;;;;;2.00;1.00;;;;;12.15;65.73;99805.31;5062407;28;45913;-70
2023/04/01 02:50:05;;;;;;;;;1.33;1.00;;;;;12.07;66.14;99784.75;5061914;28;45024;-70
2023/04/01 02:52:31;;;;;;;;;0.00;0.00;;;;;12.13;65.66;99807.09;5067873;28;45175;-70
2023/04/01 02:54:57;;;;;;;;;1.00;1.00;;;;;12.24;65.81;99823.22;5070052;28;45363;-71
2023/04/01 02:57:24;;;;;;;;;2.25;0.00;;;;;12.27;65.33;99827.69;5073090;28;45378;-72
2023/04/01 02:59:49;;;;;;;;;3.00;0.00;;;;;12.25;65.65;99825.00;5066987;28;45118;-71
2023/04/01 03:02:15;;;;;;;;;1.67;1.00;;;;;12.24;65.36;99815.19;5065627;28;44906;-71
2023/04/01 03:04:41;;;;;;;;;0.67;0.33;;;;;12.38;64.64;99838.44;5070144;28;45313;-71
2023/04/01 03:07:06;;;;;;;;;2.00;1.00;;;;;12.27;64.63;99828.56;5070027;28;45410;-71
2023/04/01 03:09:32;;;;;;;;;2.33;1.00;;;;;12.25;65.41;99824.09;5070412;28;45387;-71
2023/04/01 03:11:57;;;;;;;;;0.00;0.00;;;;;12.23;64.78;99824.09;5070870;28;45280;-71
2023/04/01 03:14:22;;;;;;;;;0.67;0.67;;;;;12.23;64.68;99817.84;5067278;28;45156;-71
2023/04/01 03:16:48;;;;;;;;;2.00;0.00;;;;;12.34;65.33;99826.81;5066693;28;55117;-71
2023/04/01 03:19:13;;;;;;;;;0.00;0.00;;;;;12.34;64.64;99838.44;5071173;28;45111;-71
2023/04/01 03:21:38;;;;;;;;;1.00;1.00;;;;;12.24;65.18;99825.91;5064041;28;45337;-71
2023/04/01 03:24:04;;;;;;;;;2.67;0.33;;;;;12.40;64.63;99836.66;5069992;28;44886;-72
2023/04/01 03:26:29;;;;;;;;;1.00;0.00;;;;;12.40;64.55;99850.94;5071042;28;45435;-72
2023/04/01 03:28:55;;;;;;;;;1.33;0.00;;;;;12.31;64.68;99838.41;5071955;28;45020;-71
2023/04/01 03:31:21;;;;;;;;;0.33;0.33;;;;;12.39;64.69;99857.22;5073326;28;45003;-71
2023/04/01 03:33:46;;;;;;;;;1.33;1.33;;;;;12.36;64.50;99859.88;5070935;28;45164;-71
2023/04/01 03:36:12;;;;;;;;;2.00;0.00;;;;;12.31;65.94;99865.19;5072022;28;45488;-71
2023/04/01 03:38:40;;;;;;;;;0.00;0.00;;;;;12.30;65.93;99865.19;5069101;28;45048;-70
2023/04/01 03:41:05;;;;;;;;;0.67;0.67;;;;;12.27;65.51;99851.78;5063693;28;45336;-71
2023/04/01 03:43:31;;;;;;;;;0.00;0.00;;;;;12.26;65.90;99869.63;5070678;28;45024;-71
2023/04/01 03:45:57;;;;;;;;;1.00;0.00;;;;;12.21;65.35;99868.72;5067565;28;45373;-70
2023/04/01 03:48:23;;;;;;;;;1.33;0.00;;;;;12.23;65.89;99863.38;5068319;28;44842;-70
2023/04/01 03:50:48;;;;;;;;;2.00;0.67;;;;;12.17;65.40;99867.78;5067984;28;45476;-71
2023/04/01 03:53:15;;;;;;;;;2.00;1.00;;;;;12.17;66.41;99872.25;5070779;28;45117;-70
2023/04/01 03:55:40;;;;;;;;;0.67;0.67;;;;;12.21;65.76;99875.84;5068836;28;48343;-72
2023/04/01 03:58:06;;;;;;;;;2.00;1.00;;;;;12.18;65.63;99868.69;5069676;28;45254;-71
2023/04/01 04:00:32;;;;;;;;;0.67;0.00;;;;;12.21;65.34;99871.41;5069785;28;44912;-70
2023/04/01 04:02:58;;;;;;;;;0.00;0.00;;;;;12.22;64.55;99865.13;5070760;28;45237;-71
2023/04/01 04:05:24;;;;;;;;;3.33;1.00;;;;;12.22;64.54;99864.25;5066003;28;45942;-72
2023/04/01 04:07:50;;;;;;;;;0.00;0.00;;;;;12.20;64.25;99863.34;5064637;28;45213;-70
2023/04/01 04:10:15;;;;;;;;;0.33;0.33;;;;;12.14;64.19;99869.56;5061796;28;45005;-70
2023/04/01 04:12:40;;;;;;;;;1.00;1.00;;;;;12.09;64.98;99857.94;5070739;28;45148;-71
2023/04/01 04:15:07;;;;;;;;;1.00;0.00;;;;;12.17;64.54;99864.22;5070360;28;45191;-71
2023/04/01 04:17:32;;;;;;;;;2.00;2.00;;;;;12.28;63.85;99875.88;5070526;28;45181;-71
2023/04/01 04:19:58;;;;;;;;;3.33;1.33;;;;;12.25;63.46;99869.63;5070729;28;57946;-70
2023/04/01 04:22:23;;;;;;;;;4.00;0.00;;;;;12.30;62.99;99879.47;5071177;28;45118;-71
2023/04/01 04:24:49;;;;;;;;;4.00;0.33;;;;;12.28;63.57;99889.28;5071823;28;46192;-71
2023/04/01 04:27:14;;;;;;;;;4.00;0.67;;;;;11.97;63.13;99840.00;5071940;28;45170;-70
2023/04/01 04:29:40;;;;;;;;;5.33;0.00;;;;;12.23;63.95;99892.84;5066282;28;45096;-71
2023/04/01 04:32:05;;;;;;;;;2.67;0.33;;;;;12.21;63.45;99882.13;5070805;28;45112;-71
2023/04/01 04:34:31;;;;;;;;;1.00;0.00;;;;;12.18;64.00;99895.47;5063992;28;47035;-71
2023/04/01 04:36:56;;;;;;;;;3.00;0.00;;;;;12.09;64.15;99871.31;5070171;28;44969;-71
2023/04/01 04:39:21;;;;;;;;;0.33;0.33;;;;;12.14;64.08;99882.94;5067953;28;45113;-71
2023/04/01 04:41:47;;;;;;;;;0.00;0.00;;;;;12.22;64.40;99891.91;5065801;28;45163;-69
2023/04/01 04:44:12;;;;;;;;;4.33;1.00;;;;;12.16;64.05;99875.84;5064455;28;46328;-71
2023/04/01 04:46:39;;;;;;;;;2.00;1.00;;;;;12.29;63.35;99895.53;5069123;28;45251;-70
2023/04/01 04:49:04;;;;;;;;;3.00;0.00;;;;;12.31;62.55;99902.69;5065404;28;45145;-70
2023/04/01 04:51:30;;;;;;;;;2.00;0.00;;;;;12.33;63.44;99905.38;5062855;28;45280;-71
2023/04/01 04:53:55;;;;;;;;;0.00;0.00;;;;;12.04;63.28;99840.94;5068994;28;49865;-70
2023/04/01 04:56:22;;;;;;;;;0.00;0.00;;;;;12.38;62.92;99906.31;5066320;28;45346;-70
2023/04/01 04:58:48;;;;;;;;;1.67;1.00;;;;;12.36;62.84;99908.09;5067192;28;45381;-70
2023/04/01 05:01:15;;;;;;;;;3.00;3.00;;;;;12.33;63.55;99892.88;5065600;28;45404;-71
2023/04/01 05:03:41;;;;;;;;;5.33;1.00;;;;;12.22;62.21;99866.94;5068926;28;45545;-70
2023/04/01 05:06:08;;;;;;;;;0.67;0.67;;;;;12.37;61.61;99898.25;5067904;28;45146;-71
2023/04/01 05:08:34;;;;;;;;;2.33;1.00;;;;;12.41;62.23;99905.44;5065554;28;44946;-70
2023/04/01 05:11:00;;;;;;;;;1.00;1.00;;;;;12.45;62.19;99910.78;5064134;28;45187;-70
2023/04/01 05:13:26;;;;;;;;;2.33;1.00;;;;;12.44;62.25;99914.38;5060352;28;45992;-70
2023/04/01 05:15:51;;;;;;;;;2.33;1.33;;;;;12.37;60.75;99900.94;5065872;28;45354;-71
2023/04/01 05:18:17;;;;;;;;;0.67;0.00;;;;;12.33;61.65;99900.03;5069691;28;44964;-71
2023/04/01 05:20:49;;;;;;;;;2.00;0.00;;;;;12.40;61.36;99915.22;5067053;28;45178;-71
2023/04/01 05:23:14;;;;;;;;;2.33;0.33;;;;;12.33;60.94;99911.63;5067008;28;47487;-71
2023/04/01 05:25:40;;;;;;;;;0.00;0.00;;;;;12.32;61.71;99915.22;5067749;28;44893;-71
2023/04/01 05:28:05;;;;;;;;;2.33;1.00;;;;;12.19;61.11;99881.19;5067967;28;45024;-70
2023/04/01 05:30:30;;;;;;;;;2.00;0.33;;;;;12.23;61.52;99895.50;5071186;28;44882;-71
2023/04/01 05:32:56;;;;;;;;;4.00;1.00;;;;;12.39;60.71;99920.59;5068971;28;50211;-70
2023/04/01 05:35:21;;;;;;;;;2.00;0.00;;;;;12.39;60.49;99928.63;5069090;28;45302;-71
2023/04/01 05:37:46;;;;;;;;;3.33;1.00;;;;;12.34;61.38;99939.31;5070027;28;45600;-71
2023/04/01 05:40:12;;;;;;;;;1.00;1.00;;;;;12.31;62.03;99932.16;5070396;28;45146;-70
2023/04/01 05:42:37;;;;;;;;;1.67;0.00;;;;;12.17;61.59;99913.31;5068452;28;47246;-71
2023/04/01 05:45:03;;;;;;;;;2.00;0.00;;;;;12.12;61.25;99907.03;5064416;28;45576;-72
2023/04/01 05:47:28;;;;;;;;;2.00;0.67;;;;;12.28;61.60;99934.81;5049881;28;45454;-71
2023/04/01 05:49:55;;;;;;;;;0.33;0.00;;;;;12.28;60.93;99944.63;5061167;28;46752;-70
2023/04/01 05:52:20;;;;;;;;;0.00;0.00;;;;;12.13;61.29;99924.91;5069226;28;47177;-70
2023/04/01 05:54:45;;;;;;;;;2.50;0.00;;;;;12.28;61.84;99942.84;5065220;28;45525;-70
2023/04/01 05:57:11;;;;;;;;;1.33;1.00;;;;;12.28;61.43;99942.84;5070446;28;45143;-70
2023/04/01 05:59:36;;;;;;;;;2.50;1.00;;;;;12.28;61.91;99944.63;5066876;28;45556;-71
2023/04/01 06:02:02;;;;;;;;;0.33;0.00;;;;;12.28;61.51;99950.88;5059680;28;45981;-71
2023/04/01 06:04:34;;;;;;;;;0.00;0.00;;;;;12.17;61.18;99939.19;5059252;28;45603;-70
2023/04/01 06:06:59;;;;;;;;;4.50;1.50;;;;;12.35;61.99;99966.09;5059733;28;45298;-71
2023/04/01 06:09:30;;;;;;;;;3.33;1.00;;;;;12.33;61.53;99972.34;5059882;28;46680;-70
2023/04/01 06:12:13;;;;;;;;;1.67;0.00;;;;;12.32;61.59;99978.56;5059810;28;45718;-71
2023/04/01 06:14:44;;;;;;;;;0.33;0.33;;;;;12.31;61.18;99977.69;5055231;28;45092;-69
2023/04/01 06:17:24;;;;;;;;;2.00;0.00;;;;;12.34;61.40;99971.44;5056449;28;45300;-71
2023/04/01 06:20:27;;;;;;;;;2.00;1.00;;;;;12.37;60.70;99983.97;5065719;28;45155;-70
2023/04/01 06:23:19;;;;;;;;;1.00;1.00;;;;;12.34;61.24;99987.50;5056967;28;45484;-70
2023/04/01 06:26:18;;;;;;;;;0.00;0.00;;;;;12.32;61.00;99979.50;5062684;28;47674;-71
2023/04/01 06:29:02;;;;;;;;;1.00;1.00;;;;;12.34;61.52;99983.06;5066659;28;44997;-72
2023/04/01 06:31:39;;;;;;;;;2.00;0.00;;;;;12.37;61.54;99981.28;5057214;28;45104;-71
2023/04/01 06:34:32;;;;;;;;;1.00;0.33;;;;;12.38;60.47;99991.13;5060919;28;45217;-71
2023/04/01 06:37:20;;;;;;;;;2.67;1.33;;;;;12.40;60.78;99998.28;5065836;28;45272;-71
2023/04/01 06:40:04;;;;;;;;;2.00;1.00;;;;;12.31;59.58;99998.22;5065962;28;45294;-70
2023/04/01 06:42:55;;;;;;;;;3.50;1.75;;;;;12.24;60.16;99994.63;5070271;28;45354;-71
2023/04/01 06:45:38;;;;;;;;;2.00;0.00;;;;;12.24;60.74;100005.31;5071860;28;45246;-69
2023/04/01 06:48:28;;;;;;;;;0.00;0.00;;;;;12.25;60.07;100011.56;5068871;28;45431;-69
2023/04/01 06:51:10;;;;;;;;;0.00;0.00;;;;;12.26;60.25;100016.94;5067171;28;45195;-70
2023/04/01 06:54:00;;;;;;;;;3.00;1.00;;;;;12.31;60.68;100008.94;5061343;28;45193;-71
2023/04/01 06:56:28;;;;;;;;;1.00;0.00;;;;;12.33;59.97;100010.72;5071459;28;46026;-71
2023/04/01 06:59:05;;;;;;;;;5.67;1.00;;;;;12.32;60.13;100014.31;5067748;28;45225;-71
2023/04/01 07:01:39;;;;;;;;;0.67;0.33;;;;;12.33;60.36;100013.41;5073298;28;45233;-70
2023/04/01 07:04:13;;;;;;;;;1.33;0.00;;;;;12.37;59.57;100013.44;5073575;28;45097;-71
2023/04/01 07:06:52;;;;;;;;;4.00;0.67;;;;;12.33;59.57;99996.47;5067232;28;46068;-70
2023/04/01 07:09:38;;;;;;;;;0.00;0.00;;;;;12.45;59.73;100004.56;5063107;28;45115;-70
2023/04/01 07:12:36;;;;;;;;;2.67;1.33;;;;;12.65;59.58;100017.19;5067797;28;45005;-71
2023/04/01 07:15:24;;;;;;;;;0.00;0.00;;;;;12.74;58.86;100022.63;5069856;28;45170;-69
2023/04/01 07:17:58;;;;;;;;;1.00;1.00;;;;;12.72;58.22;100009.22;5063778;28;45525;-71
2023/04/01 07:20:30;;;;;;;;;0.00;0.00;;;;;12.81;58.41;100018.19;5073497;28;45057;-72
2023/04/01 07:23:02;;;;;;;;;1.00;0.00;;;;;12.82;58.02;100023.56;5070752;28;44937;-71
2023/04/01 07:25:33;;;;;;;;;0.00;0.00;;;;;12.79;57.03;100018.19;5072169;28;45066;-71
2023/04/01 07:28:19;;;;;;;;;0.00;0.00;;;;;12.55;58.00;99981.41;5065349;28;45285;-73
2023/04/01 07:31:02;;;;;;;;;5.33;1.33;;;;;12.84;57.85;100031.63;5062025;28;44980;-72
2023/04/01 07:33:37;;;;;;;;;1.00;1.00;;;;;12.87;57.36;100027.16;5061662;28;45501;-70
2023/04/01 07:36:29;;;;;;;;;2.00;2.00;;;;;12.88;57.79;100022.69;5066911;28;45121;-70
2023/04/01 07:39:32;;;;;;;;;1.00;1.00;;;;;12.88;57.51;100028.03;5066483;28;45354;-71
2023/04/01 07:42:37;;;;;;;;;3.67;1.00;;;;;12.83;57.51;100033.38;5063175;28;45123;-72
2023/04/01 07:45:17;;;;;;;;;1.00;1.00;;;;;12.83;57.64;100024.44;5061881;28;45265;-71
2023/04/01 07:48:07;;;;;;;;;3.00;1.67;;;;;12.80;58.04;100016.38;5068632;28;45043;-71
2023/04/01 07:51:06;;;;;;;;;2.33;0.33;;;;;12.85;56.76;100034.31;5063179;28;46153;-72
2023/04/01 07:54:02;;;;;;;;;0.67;0.00;;;;;12.87;57.46;100039.69;5068198;28;45257;-70
2023/04/01 07:56:36;;;;;;;;;1.00;0.00;;;;;12.78;57.07;100021.75;5057031;28;45145;-71
2023/04/01 07:59:36;;;;;;;;;2.00;0.00;;;;;12.91;57.41;100053.09;5070478;28;45123;-72
2023/04/01 08:02:01;;;;;;;;;1.00;1.00;;;;;12.90;56.53;100034.31;5052904;28;46070;-72
2023/04/01 08:04:51;;;;;;;;;3.00;0.67;;;;;12.95;57.28;100043.28;5063740;28;45088;-72
2023/04/01 08:07:44;;;;;;;;;3.00;1.00;;;;;12.98;56.98;100045.09;5057185;28;44966;-71
2023/04/01 08:10:32;;;;;;;;;0.33;0.33;;;;;13.08;56.80;100045.16;5062929;28;45330;-71
2023/04/01 08:13:08;;;;;;;;;3.67;2.00;;;;;13.16;56.94;100038.91;5066582;28;45846;-71
2023/04/01 08:15:54;;;;;;;;;0.00;0.00;;;;;13.24;56.11;100056.81;5063392;28;45135;-71
2023/04/01 08:18:28;;;;;;;;;2.00;0.67;;;;;13.27;55.47;100054.16;5061468;28;45139;-72
2023/04/01 08:20:59;;;;;;;;;4.67;0.33;;;;;13.32;55.55;100056.91;5064931;28;44971;-73
2023/04/01 08:23:32;;;;;;;;;0.00;0.00;;;;;13.37;55.53;100065.84;5067435;28;45170;-72
2023/04/01 08:26:02;;;;;;;;;2.00;1.33;;;;;13.43;55.23;100062.31;5067034;28;45041;-71
2023/04/01 08:28:39;;;;;;;;;1.00;1.00;;;;;13.45;54.96;100064.09;5065103;28;45210;-71
2023/04/01 08:31:11;;;;;;;;;0.00;0.00;;;;;13.48;55.26;100063.22;5058419;28;45167;-71
2023/04/01 08:33:37;;;;;;;;;3.00;1.33;;;;;13.37;54.38;100040.81;5060615;28;45770;-71
2023/04/01 08:36:10;;;;;;;;;1.00;1.00;;;;;13.51;54.97;100057.84;5068404;28;46084;-71
2023/04/01 08:38:46;;;;;;;;;2.00;0.00;;;;;13.60;54.30;100078.47;5063605;28;45226;-71
2023/04/01 08:41:36;;;;;;;;;2.00;1.67;;;;;13.61;54.23;100057.00;5059567;28;45367;-72
2023/04/01 08:44:33;;;;;;;;;1.00;0.00;;;;;13.63;53.71;100074.00;5059261;28;45813;-73
2023/04/01 08:47:46;;;;;;;;;2.00;0.00;;;;;13.61;53.22;100070.44;5051004;28;45190;-71
2023/04/01 08:50:39;;;;;;;;;2.67;0.33;;;;;13.51;54.43;100075.75;5048006;28;45248;-71
2023/04/01 08:53:16;;;;;;;;;0.33;0.33;;;;;13.50;54.08;100072.19;5066926;28;45410;-71
2023/04/01 08:56:20;;;;;;;;;1.67;0.00;;;;;13.47;53.97;100071.28;5053132;28;45711;-71
2023/04/01 08:59:17;;;;;;;;;0.33;0.33;;;;;13.53;53.65;100077.56;5056903;28;45536;-71
2023/04/01 09:02:08;;;;;;;;;1.67;0.00;;;;;13.60;53.65;100081.16;5052707;28;45230;-71
2023/04/01 09:04:59;;;;;;;;;6.33;3.00;;;;;13.65;53.71;100076.69;5061417;28;45238;-71
2023/04/01 09:07:52;;;;;;;;;0.00;0.00;;;;;13.61;54.00;100069.50;5067959;28;46940;-71
2023/04/01 09:10:39;;;;;;;;;6.00;0.00;;;;;13.64;53.38;100067.75;5059174;28;45165;-69
2023/04/01 09:13:07;;;;;;;;;4.00;1.00;;;;;13.67;53.23;100076.69;5046223;28;45382;-71
2023/04/01 09:16:00;;;;;;;;;2.00;2.00;;;;;13.74;53.37;100066.00;5059125;28;45491;-72
2023/04/01 09:19:03;;;;;;;;;1.00;1.00;;;;;13.84;53.08;100066.88;5058408;28;46198;-71
2023/04/01 09:22:12;;;;;;;;;1.33;1.00;;;;;13.92;52.85;100078.53;5059703;28;45073;-72
2023/04/01 09:24:53;;;;;;;;;2.00;1.00;;;;;13.99;52.92;100066.00;5056811;28;45199;-72
2023/04/01 09:27:31;;;;;;;;;3.33;0.67;;;;;14.05;52.98;100059.78;5068463;28;45072;-73
2023/04/01 09:30:41;;;;;;;;;1.33;0.33;;;;;14.11;52.67;100068.72;5075298;28;46678;-73
2023/04/01 09:33:42;;;;;;;;;0.00;0.00;;;;;14.12;52.03;100074.97;5063302;28;44859;-71
2023/04/01 09:36:40;;;;;;;;;3.00;1.00;;;;;14.10;51.70;100074.97;5061072;28;45401;-72
2023/04/01 09:39:38;;;;;;;;;2.00;1.00;;;;;14.11;52.25;100082.16;5058497;28;45252;-69
2023/04/01 09:42:23;;;;;;;;;0.33;0.33;;;;;14.11;52.40;100081.28;5054671;28;45342;-71
2023/04/01 09:44:57;;;;;;;;;2.00;0.00;;;;;14.20;52.27;100081.25;5050135;28;45622;-72
2023/04/01 09:47:22;;;;;;;;;2.00;2.00;;;;;14.32;51.85;100085.75;5067895;28;45303;-71
2023/04/01 09:50:15;;;;;;;;;1.67;1.67;;;;;14.36;51.23;100082.19;5067512;28;45204;-72
2023/04/01 09:53:04;;;;;;;;;1.00;1.00;;;;;14.45;50.88;100090.25;5066825;28;45717;-72
2023/04/01 09:55:58;;;;;;;;;1.00;1.00;;;;;14.62;50.37;100078.59;5059290;28;45152;-71
2023/04/01 09:58:33;;;;;;;;;1.00;0.00;;;;;14.67;49.67;100095.66;5050017;28;45022;-69
2023/04/01 10:01:11;;;;;;;;;2.00;0.00;;;;;14.64;49.24;100098.34;5068512;28;45182;-71
2023/04/01 10:04:17;;;;;;;;;2.00;0.67;;;;;14.59;48.99;100114.47;5057070;28;45541;-71
2023/04/01 10:07:14;;;;;;;;;1.00;1.00;;;;;14.48;48.15;100103.66;5056607;28;45012;-71
2023/04/01 10:09:55;;;;;;;;;1.00;1.00;;;;;14.48;48.71;100106.34;5067121;28;45504;-71
2023/04/01 10:13:05;;;;;;;;;1.00;1.00;;;;;14.53;48.36;100109.94;5067921;28;45324;-72
2023/04/01 10:15:55;;;;;;;;;2.33;0.00;;;;;14.60;47.96;100096.53;5072470;28;46039;-72
2023/04/01 10:18:36;;;;;;;;;2.00;2.00;;;;;14.64;47.49;100106.41;5081801;28;45345;-72
2023/04/01 10:21:25;;;;;;;;;1.00;1.00;;;;;14.80;47.18;100097.41;5066305;28;45448;-72
2023/04/01 10:24:10;;;;;;;;;4.33;2.67;;;;;14.95;46.12;100092.88;5067545;28;45095;-71
2023/04/01 10:26:53;;;;;;;;;4.00;2.00;;;;;15.13;45.95;100095.56;5072462;28;46020;-72
2023/04/01 10:29:39;;;;;;;;;5.00;2.00;;;;;15.22;45.35;100100.00;5061105;28;45011;-72
2023/04/01 10:32:21;;;;;;;;;1.00;1.00;;;;;15.33;45.10;100103.56;5070474;28;45359;-72
2023/04/01 10:35:07;;;;;;;;;0.67;0.67;;;;;15.35;44.67;100112.53;5071162;28;45353;-72
2023/04/01 10:37:51;;;;;;;;;1.33;1.00;;;;;15.25;44.55;100094.63;5055250;28;47608;-71
2023/04/01 10:40:53;;;;;;;;;1.00;1.00;;;;;15.16;44.90;100098.22;5067537;28;45409;-75
2023/04/01 10:43:52;;;;;;;;;0.33;0.33;;;;;15.20;44.19;100096.44;5064638;28;45149;-73
2023/04/01 10:46:49;;;;;;;;;1.00;1.00;;;;;15.24;44.59;100099.09;5079081;28;45460;-71
2023/04/01 10:49:50;;;;;;;;;2.00;1.00;;;;;15.34;44.86;100102.66;5069019;28;47264;-71
2023/04/01 10:52:36;;;;;;;;;2.00;2.00;;;;;15.34;43.91;100091.88;5045189;28;45418;-70
2023/04/01 10:55:11;;;;;;;;;1.00;0.00;;;;;15.52;43.65;100096.28;5069787;28;45317;-71
2023/04/01 10:57:58;;;;;;;;;2.33;1.00;;;;;15.66;42.67;100088.19;5069185;28;45075;-71
2023/04/01 11:00:52;;;;;;;;;1.67;1.00;;;;;15.83;42.35;100090.81;5061745;28;45860;-72
2023/04/01 11:03:42;;;;;;;;;3.67;1.33;;;;;15.99;42.20;100087.09;5055302;28;44983;-72
2023/04/01 11:06:37;;;;;;;;;4.33;1.33;;;;;16.11;42.04;100071.78;5066946;28;45120;-70
2023/04/01 11:09:20;;;;;;;;;1.67;1.67;;;;;16.26;41.55;100073.44;5071660;28;45212;-71
2023/04/01 11:12:26;;;;;;;;;3.67;2.33;;;;;16.40;40.73;100053.56;5066826;28;45607;-70
2023/04/01 11:15:19;;;;;;;;;1.00;1.00;;;;;16.66;40.28;100071.28;5060695;28;45156;-71
2023/04/01 11:17:45;;;;;;;;;4.00;2.00;;;;;16.63;39.75;100059.63;5057787;28;45248;-72
2023/04/01 11:20:22;;;;;;;;;3.33;0.67;;;;;16.62;40.36;100058.75;5070114;28;45405;-71
2023/04/01 11:23:09;;;;;;;;;2.67;0.00;;;;;16.56;40.17;100057.03;5070716;28;45784;-72
2023/04/01 11:26:05;;;;;;;;;0.00;0.00;;;;;16.48;40.01;100047.19;5068787;28;45213;-72
2023/04/01 11:28:43;;;;;;;;;2.33;2.33;;;;;16.35;40.41;100057.19;5065557;28;45132;-72
2023/04/01 11:31:23;;;;;;;;;1.33;1.33;;;;;16.21;40.72;100060.00;5070086;28;45244;-71
2023/04/01 11:33:52;;;;;;;;;23.75;23.75;;;;;16.19;41.37;100069.91;5068706;28;46209;-71
2023/04/01 11:36:24;;;;;;;;;4.00;2.00;;;;;16.20;41.38;100066.28;5069718;28;45044;-73
2023/04/01 11:39:15;;;;;;;;;1.00;1.00;;;;;16.23;41.37;100073.47;5063418;28;45089;-71
2023/04/01 11:42:16;;;;;;;;;1.67;1.67;;;;;16.27;40.85;100073.44;5057320;28;45310;-72
2023/04/01 11:45:20;;;;;;;;;1.33;0.00;;;;;16.24;40.07;100068.06;5065719;28;46049;-71
2023/04/01 11:47:54;;;;;;;;;3.00;1.00;;;;;16.18;39.78;100079.78;5060632;28;45064;-70
2023/04/01 11:50:46;;;;;;;;;7.33;4.00;;;;;16.30;40.17;100080.59;5070581;28;45113;-71
2023/04/01 11:53:33;;;;;;;;;0.67;0.67;;;;;16.44;39.88;100078.69;5052820;28;45113;-72
2023/04/01 11:55:58;;;;;;;;;0.67;0.67;;;;;16.44;40.51;100081.38;5063603;28;45502;-72
2023/04/01 11:58:45;;;;;;;;;3.67;2.33;;;;;16.45;40.58;100075.09;5067971;28;45078;-71
2023/04/01 12:01:33;;;;;;;;;2.33;1.67;;;;;16.48;40.90;100084.94;5065294;28;44870;-71
2023/04/01 12:04:32;;;;;;;;;2.33;2.33;;;;;16.39;41.22;100097.59;5070686;28;45057;-72
2023/04/01 12:07:19;;;;;;;;;0.00;0.00;;;;;16.06;41.37;100017.91;5063601;28;45548;-72
2023/04/01 12:10:25;;;;;;;;;2.00;0.67;;;;;16.59;41.51;100083.06;5055986;28;45381;-70
2023/04/01 12:13:06;;;;;;;;;1.67;0.00;;;;;16.69;41.20;100090.16;5070301;28;45148;-72